sensor_id;sensor_type;location;lat;lon;timestamp;temperature;humidity
43995;DHT22;51687;52.160;5.298;2024-02-04T00:02:22;13.40;80.60
43995;DHT22;51687;52.160;5.298;2024-02-04T00:04:51;13.40;80.50
43995;DHT22;51687;52.160;5.298;2024-02-04T00:07:18;13.40;80.50
43995;DHT22;51687;52.160;5.298;2024-02-04T00:09:45;13.40;80.50
43995;DHT22;51687;52.160;5.298;2024-02-04T00:12:12;13.40;80.70
43995;DHT22;51687;52.160;5.298;2024-02-04T00:14:39;13.40;80.80
43995;DHT22;51687;52.160;5.298;2024-02-04T00:17:08;13.50;80.80
43995;DHT22;51687;52.160;5.298;2024-02-04T00:19:35;13.50;80.30
43995;DHT22;51687;52.160;5.298;2024-02-04T00:22:02;13.40;80.10
43995;DHT22;51687;52.160;5.298;2024-02-04T00:24:29;13.40;79.90
43995;DHT22;51687;52.160;5.298;2024-02-04T00:26:55;13.40;80.00
43995;DHT22;51687;52.160;5.298;2024-02-04T00:29:22;13.30;80.00
43995;DHT22;51687;52.160;5.298;2024-02-04T00:31:49;13.30;80.20
43995;DHT22;51687;52.160;5.298;2024-02-04T00:34:16;13.30;80.80
43995;DHT22;51687;52.160;5.298;2024-02-04T00:36:43;13.30;80.10
43995;DHT22;51687;52.160;5.298;2024-02-04T00:39:10;13.30;79.80
43995;DHT22;51687;52.160;5.298;2024-02-04T00:41:37;13.30;80.30
43995;DHT22;51687;52.160;5.298;2024-02-04T00:44:04;13.30;80.30
43995;DHT22;51687;52.160;5.298;2024-02-04T00:46:31;13.30;80.20
43995;DHT22;51687;52.160;5.298;2024-02-04T00:48:58;13.30;80.10
43995;DHT22;51687;52.160;5.298;2024-02-04T00:51:25;13.30;80.10
43995;DHT22;51687;52.160;5.298;2024-02-04T00:53:52;13.20;79.90
43995;DHT22;51687;52.160;5.298;2024-02-04T00:56:19;13.20;79.80
43995;DHT22;51687;52.160;5.298;2024-02-04T00:58:46;13.20;80.20
43995;DHT22;51687;52.160;5.298;2024-02-04T01:01:14;13.20;80.30
43995;DHT22;51687;52.160;5.298;2024-02-04T01:03:41;13.10;80.30
43995;DHT22;51687;52.160;5.298;2024-02-04T01:06:08;13.20;80.30
43995;DHT22;51687;52.160;5.298;2024-02-04T01:08:35;13.10;80.30
43995;DHT22;51687;52.160;5.298;2024-02-04T01:11:05;13.20;80.30
43995;DHT22;51687;52.160;5.298;2024-02-04T01:13:32;13.20;80.30
43995;DHT22;51687;52.160;5.298;2024-02-04T01:15:59;13.20;80.30
43995;DHT22;51687;52.160;5.298;2024-02-04T01:18:26;13.20;80.30
43995;DHT22;51687;52.160;5.298;2024-02-04T01:20:53;13.20;80.40
43995;DHT22;51687;52.160;5.298;2024-02-04T01:23:20;13.20;80.30
43995;DHT22;51687;52.160;5.298;2024-02-04T01:25:46;13.20;80.30
43995;DHT22;51687;52.160;5.298;2024-02-04T01:28:13;13.20;80.30
43995;DHT22;51687;52.160;5.298;2024-02-04T01:30:40;13.10;80.20
43995;DHT22;51687;52.160;5.298;2024-02-04T01:33:07;13.20;80.20
43995;DHT22;51687;52.160;5.298;2024-02-04T01:35:34;13.10;79.90
43995;DHT22;51687;52.160;5.298;2024-02-04T01:38:01;13.10;80.00
43995;DHT22;51687;52.160;5.298;2024-02-04T01:40:28;13.10;80.00
43995;DHT22;51687;52.160;5.298;2024-02-04T01:42:55;13.10;79.90
43995;DHT22;51687;52.160;5.298;2024-02-04T01:45:22;13.10;79.80
43995;DHT22;51687;52.160;5.298;2024-02-04T01:47:51;13.10;79.60
43995;DHT22;51687;52.160;5.298;2024-02-04T01:50:19;13.10;79.50
43995;DHT22;51687;52.160;5.298;2024-02-04T01:52:47;13.10;79.60
43995;DHT22;51687;52.160;5.298;2024-02-04T01:55:15;13.10;79.70
43995;DHT22;51687;52.160;5.298;2024-02-04T01:57:42;13.00;79.60
43995;DHT22;51687;52.160;5.298;2024-02-04T02:00:09;13.10;79.70
43995;DHT22;51687;52.160;5.298;2024-02-04T02:02:40;13.10;79.50
43995;DHT22;51687;52.160;5.298;2024-02-04T02:05:08;13.10;79.40
43995;DHT22;51687;52.160;5.298;2024-02-04T02:07:35;13.10;79.40
43995;DHT22;51687;52.160;5.298;2024-02-04T02:10:02;13.10;79.30
43995;DHT22;51687;52.160;5.298;2024-02-04T02:12:40;13.10;79.40
43995;DHT22;51687;52.160;5.298;2024-02-04T02:15:15;13.10;79.40
43995;DHT22;51687;52.160;5.298;2024-02-04T02:17:48;13.10;79.30
43995;DHT22;51687;52.160;5.298;2024-02-04T02:20:21;13.10;78.90
43995;DHT22;51687;52.160;5.298;2024-02-04T02:25:36;13.00;78.50
43995;DHT22;51687;52.160;5.298;2024-02-04T02:28:04;13.00;78.40
43995;DHT22;51687;52.160;5.298;2024-02-04T02:30:31;13.00;78.10
43995;DHT22;51687;52.160;5.298;2024-02-04T02:32:58;13.00;78.20
43995;DHT22;51687;52.160;5.298;2024-02-04T02:35:26;13.00;78.20
43995;DHT22;51687;52.160;5.298;2024-02-04T02:37:59;13.00;78.20
43995;DHT22;51687;52.160;5.298;2024-02-04T02:40:38;12.90;78.00
43995;DHT22;51687;52.160;5.298;2024-02-04T02:43:08;12.90;77.80
43995;DHT22;51687;52.160;5.298;2024-02-04T02:45:38;12.80;77.90
43995;DHT22;51687;52.160;5.298;2024-02-04T02:48:06;12.80;78.10
43995;DHT22;51687;52.160;5.298;2024-02-04T02:50:38;12.80;78.10
43995;DHT22;51687;52.160;5.298;2024-02-04T02:53:11;12.80;78.30
43995;DHT22;51687;52.160;5.298;2024-02-04T02:55:38;12.80;78.50
43995;DHT22;51687;52.160;5.298;2024-02-04T02:58:05;12.80;78.50
43995;DHT22;51687;52.160;5.298;2024-02-04T03:00:32;12.80;78.40
43995;DHT22;51687;52.160;5.298;2024-02-04T03:02:58;12.80;78.40
43995;DHT22;51687;52.160;5.298;2024-02-04T03:05:25;12.80;78.30
43995;DHT22;51687;52.160;5.298;2024-02-04T03:07:52;12.80;78.70
43995;DHT22;51687;52.160;5.298;2024-02-04T03:10:19;12.80;78.80
43995;DHT22;51687;52.160;5.298;2024-02-04T03:12:46;12.80;78.80
43995;DHT22;51687;52.160;5.298;2024-02-04T03:15:13;12.80;79.50
43995;DHT22;51687;52.160;5.298;2024-02-04T03:17:39;12.80;79.10
43995;DHT22;51687;52.160;5.298;2024-02-04T03:20:06;12.80;79.00
43995;DHT22;51687;52.160;5.298;2024-02-04T03:22:33;12.80;78.90
43995;DHT22;51687;52.160;5.298;2024-02-04T03:25:00;12.80;78.70
43995;DHT22;51687;52.160;5.298;2024-02-04T03:27:29;12.70;78.30
43995;DHT22;51687;52.160;5.298;2024-02-04T03:29:56;12.70;78.20
43995;DHT22;51687;52.160;5.298;2024-02-04T03:32:23;12.70;78.20
43995;DHT22;51687;52.160;5.298;2024-02-04T03:34:49;12.70;78.10
43995;DHT22;51687;52.160;5.298;2024-02-04T03:37:16;12.70;77.90
43995;DHT22;51687;52.160;5.298;2024-02-04T03:39:45;12.60;77.40
43995;DHT22;51687;52.160;5.298;2024-02-04T03:42:12;12.60;77.10
43995;DHT22;51687;52.160;5.298;2024-02-04T03:44:39;12.60;76.70
43995;DHT22;51687;52.160;5.298;2024-02-04T03:47:05;12.60;76.40
43995;DHT22;51687;52.160;5.298;2024-02-04T03:49:33;12.60;76.20
43995;DHT22;51687;52.160;5.298;2024-02-04T03:52:00;12.60;75.90
43995;DHT22;51687;52.160;5.298;2024-02-04T03:54:27;12.60;75.50
43995;DHT22;51687;52.160;5.298;2024-02-04T03:56:53;12.50;75.40
43995;DHT22;51687;52.160;5.298;2024-02-04T03:59:20;12.50;75.00
43995;DHT22;51687;52.160;5.298;2024-02-04T04:01:50;12.50;75.00
43995;DHT22;51687;52.160;5.298;2024-02-04T04:04:20;12.40;75.20
43995;DHT22;51687;52.160;5.298;2024-02-04T04:06:47;12.40;75.20
43995;DHT22;51687;52.160;5.298;2024-02-04T04:09:15;12.40;75.60
43995;DHT22;51687;52.160;5.298;2024-02-04T04:11:41;12.50;75.30
43995;DHT22;51687;52.160;5.298;2024-02-04T04:14:08;12.50;75.50
43995;DHT22;51687;52.160;5.298;2024-02-04T04:16:35;12.40;75.50
43995;DHT22;51687;52.160;5.298;2024-02-04T04:19:02;12.40;75.50
43995;DHT22;51687;52.160;5.298;2024-02-04T04:21:29;12.40;75.80
43995;DHT22;51687;52.160;5.298;2024-02-04T04:23:56;12.40;75.80
43995;DHT22;51687;52.160;5.298;2024-02-04T04:26:23;12.40;76.10
43995;DHT22;51687;52.160;5.298;2024-02-04T04:28:49;12.40;76.30
43995;DHT22;51687;52.160;5.298;2024-02-04T04:31:16;12.40;76.40
43995;DHT22;51687;52.160;5.298;2024-02-04T04:33:43;12.40;76.50
43995;DHT22;51687;52.160;5.298;2024-02-04T04:36:10;12.40;76.60
43995;DHT22;51687;52.160;5.298;2024-02-04T04:38:37;12.40;76.60
43995;DHT22;51687;52.160;5.298;2024-02-04T04:41:04;12.40;76.80
43995;DHT22;51687;52.160;5.298;2024-02-04T04:43:30;12.40;76.70
43995;DHT22;51687;52.160;5.298;2024-02-04T04:45:57;12.40;76.80
43995;DHT22;51687;52.160;5.298;2024-02-04T04:48:24;12.40;76.80
43995;DHT22;51687;52.160;5.298;2024-02-04T04:50:51;12.40;76.70
43995;DHT22;51687;52.160;5.298;2024-02-04T04:53:18;12.40;76.40
43995;DHT22;51687;52.160;5.298;2024-02-04T04:55:45;12.40;76.10
43995;DHT22;51687;52.160;5.298;2024-02-04T04:58:11;12.40;76.10
43995;DHT22;51687;52.160;5.298;2024-02-04T05:00:38;12.40;75.80
43995;DHT22;51687;52.160;5.298;2024-02-04T05:03:05;12.30;75.50
43995;DHT22;51687;52.160;5.298;2024-02-04T05:05:32;12.30;75.60
43995;DHT22;51687;52.160;5.298;2024-02-04T05:07:59;12.30;75.50
43995;DHT22;51687;52.160;5.298;2024-02-04T05:10:26;12.30;75.50
43995;DHT22;51687;52.160;5.298;2024-02-04T05:12:53;12.30;75.60
43995;DHT22;51687;52.160;5.298;2024-02-04T05:15:19;12.30;75.70
43995;DHT22;51687;52.160;5.298;2024-02-04T05:17:48;12.30;75.80
43995;DHT22;51687;52.160;5.298;2024-02-04T05:20:15;12.30;76.00
43995;DHT22;51687;52.160;5.298;2024-02-04T05:22:42;12.30;76.00
43995;DHT22;51687;52.160;5.298;2024-02-04T05:25:09;12.30;76.00
43995;DHT22;51687;52.160;5.298;2024-02-04T05:27:36;12.30;76.20
43995;DHT22;51687;52.160;5.298;2024-02-04T05:30:08;12.30;76.30
43995;DHT22;51687;52.160;5.298;2024-02-04T05:32:35;12.30;76.40
43995;DHT22;51687;52.160;5.298;2024-02-04T05:35:03;12.30;76.50
43995;DHT22;51687;52.160;5.298;2024-02-04T05:37:30;12.30;76.60
43995;DHT22;51687;52.160;5.298;2024-02-04T05:39:56;12.30;76.60
43995;DHT22;51687;52.160;5.298;2024-02-04T05:42:23;12.30;76.70
43995;DHT22;51687;52.160;5.298;2024-02-04T05:44:50;12.30;76.80
43995;DHT22;51687;52.160;5.298;2024-02-04T05:47:18;12.30;76.80
43995;DHT22;51687;52.160;5.298;2024-02-04T05:49:45;12.30;76.90
43995;DHT22;51687;52.160;5.298;2024-02-04T05:52:12;12.30;76.80
43995;DHT22;51687;52.160;5.298;2024-02-04T05:54:39;12.30;76.60
43995;DHT22;51687;52.160;5.298;2024-02-04T05:57:06;12.30;76.60
43995;DHT22;51687;52.160;5.298;2024-02-04T05:59:34;12.30;76.40
43995;DHT22;51687;52.160;5.298;2024-02-04T06:02:02;12.30;76.20
43995;DHT22;51687;52.160;5.298;2024-02-04T06:04:29;12.30;76.20
43995;DHT22;51687;52.160;5.298;2024-02-04T06:06:57;12.30;76.00
43995;DHT22;51687;52.160;5.298;2024-02-04T06:09:24;12.30;76.10
43995;DHT22;51687;52.160;5.298;2024-02-04T06:11:51;12.30;76.00
43995;DHT22;51687;52.160;5.298;2024-02-04T06:14:18;12.30;76.00
43995;DHT22;51687;52.160;5.298;2024-02-04T06:16:44;12.30;76.10
43995;DHT22;51687;52.160;5.298;2024-02-04T06:19:11;12.30;76.20
43995;DHT22;51687;52.160;5.298;2024-02-04T06:21:40;12.30;76.50
43995;DHT22;51687;52.160;5.298;2024-02-04T06:24:07;12.30;76.60
43995;DHT22;51687;52.160;5.298;2024-02-04T06:26:37;12.30;76.70
43995;DHT22;51687;52.160;5.298;2024-02-04T06:29:04;12.30;76.80
43995;DHT22;51687;52.160;5.298;2024-02-04T06:31:31;12.40;76.90
43995;DHT22;51687;52.160;5.298;2024-02-04T06:33:58;12.40;77.00
43995;DHT22;51687;52.160;5.298;2024-02-04T06:36:25;12.40;77.20
43995;DHT22;51687;52.160;5.298;2024-02-04T06:38:52;12.40;77.50
43995;DHT22;51687;52.160;5.298;2024-02-04T06:41:19;12.40;77.60
43995;DHT22;51687;52.160;5.298;2024-02-04T06:43:46;12.40;77.80
43995;DHT22;51687;52.160;5.298;2024-02-04T06:46:13;12.40;77.90
43995;DHT22;51687;52.160;5.298;2024-02-04T06:48:40;12.40;78.10
43995;DHT22;51687;52.160;5.298;2024-02-04T06:51:07;12.40;78.50
43995;DHT22;51687;52.160;5.298;2024-02-04T06:53:33;12.40;78.70
43995;DHT22;51687;52.160;5.298;2024-02-04T06:56:00;12.40;78.90
43995;DHT22;51687;52.160;5.298;2024-02-04T06:58:27;12.50;79.00
43995;DHT22;51687;52.160;5.298;2024-02-04T07:00:54;12.50;79.00
43995;DHT22;51687;52.160;5.298;2024-02-04T07:03:21;12.50;79.20
43995;DHT22;51687;52.160;5.298;2024-02-04T07:05:48;12.50;79.10
43995;DHT22;51687;52.160;5.298;2024-02-04T07:08:16;12.50;79.40
43995;DHT22;51687;52.160;5.298;2024-02-04T07:10:44;12.50;79.60
43995;DHT22;51687;52.160;5.298;2024-02-04T07:13:11;12.50;79.50
43995;DHT22;51687;52.160;5.298;2024-02-04T07:15:39;12.50;79.50
43995;DHT22;51687;52.160;5.298;2024-02-04T07:18:07;12.50;79.40
43995;DHT22;51687;52.160;5.298;2024-02-04T07:20:34;12.50;79.40
43995;DHT22;51687;52.160;5.298;2024-02-04T07:23:01;12.50;79.60
43995;DHT22;51687;52.160;5.298;2024-02-04T07:25:28;12.60;79.70
43995;DHT22;51687;52.160;5.298;2024-02-04T07:27:55;12.60;79.70
43995;DHT22;51687;52.160;5.298;2024-02-04T07:30:23;12.60;79.50
43995;DHT22;51687;52.160;5.298;2024-02-04T07:32:50;12.60;79.60
43995;DHT22;51687;52.160;5.298;2024-02-04T07:35:17;12.60;79.50
43995;DHT22;51687;52.160;5.298;2024-02-04T07:37:44;12.60;79.40
43995;DHT22;51687;52.160;5.298;2024-02-04T07:40:16;12.60;79.60
43995;DHT22;51687;52.160;5.298;2024-02-04T07:42:43;12.60;79.80
43995;DHT22;51687;52.160;5.298;2024-02-04T07:45:10;12.60;79.90
43995;DHT22;51687;52.160;5.298;2024-02-04T07:47:37;12.50;79.80
43995;DHT22;51687;52.160;5.298;2024-02-04T07:50:04;12.50;80.10
43995;DHT22;51687;52.160;5.298;2024-02-04T07:52:32;12.50;80.40
43995;DHT22;51687;52.160;5.298;2024-02-04T07:54:59;12.50;80.40
43995;DHT22;51687;52.160;5.298;2024-02-04T07:57:26;12.50;80.10
43995;DHT22;51687;52.160;5.298;2024-02-04T07:59:53;12.50;80.00
43995;DHT22;51687;52.160;5.298;2024-02-04T08:02:20;12.50;79.90
43995;DHT22;51687;52.160;5.298;2024-02-04T08:04:47;12.60;79.80
43995;DHT22;51687;52.160;5.298;2024-02-04T08:07:14;12.60;79.40
43995;DHT22;51687;52.160;5.298;2024-02-04T08:09:41;12.70;79.00
43995;DHT22;51687;52.160;5.298;2024-02-04T08:12:08;12.70;78.80
43995;DHT22;51687;52.160;5.298;2024-02-04T08:14:36;12.70;78.20
43995;DHT22;51687;52.160;5.298;2024-02-04T08:17:03;12.70;77.70
43995;DHT22;51687;52.160;5.298;2024-02-04T08:19:30;12.70;77.70
43995;DHT22;51687;52.160;5.298;2024-02-04T08:21:56;12.70;77.00
43995;DHT22;51687;52.160;5.298;2024-02-04T08:24:24;12.70;76.80
43995;DHT22;51687;52.160;5.298;2024-02-04T08:26:51;12.70;76.40
43995;DHT22;51687;52.160;5.298;2024-02-04T08:29:18;12.70;76.40
43995;DHT22;51687;52.160;5.298;2024-02-04T08:31:45;12.70;76.40
43995;DHT22;51687;52.160;5.298;2024-02-04T08:34:11;12.80;76.40
43995;DHT22;51687;52.160;5.298;2024-02-04T08:36:38;12.80;76.40
43995;DHT22;51687;52.160;5.298;2024-02-04T08:39:05;12.80;76.20
43995;DHT22;51687;52.160;5.298;2024-02-04T08:41:32;12.80;76.30
43995;DHT22;51687;52.160;5.298;2024-02-04T08:43:59;12.90;76.00
43995;DHT22;51687;52.160;5.298;2024-02-04T08:46:29;12.80;76.50
43995;DHT22;51687;52.160;5.298;2024-02-04T08:48:56;12.80;76.10
43995;DHT22;51687;52.160;5.298;2024-02-04T08:51:23;12.80;76.30
43995;DHT22;51687;52.160;5.298;2024-02-04T08:53:52;12.80;76.90
43995;DHT22;51687;52.160;5.298;2024-02-04T08:56:18;12.80;76.90
43995;DHT22;51687;52.160;5.298;2024-02-04T08:58:46;12.90;77.00
43995;DHT22;51687;52.160;5.298;2024-02-04T09:01:12;12.90;77.20
43995;DHT22;51687;52.160;5.298;2024-02-04T09:03:42;12.90;77.20
43995;DHT22;51687;52.160;5.298;2024-02-04T09:06:09;12.90;77.40
43995;DHT22;51687;52.160;5.298;2024-02-04T09:08:36;12.90;77.60
43995;DHT22;51687;52.160;5.298;2024-02-04T09:11:03;12.90;77.80
43995;DHT22;51687;52.160;5.298;2024-02-04T09:13:31;12.90;78.00
43995;DHT22;51687;52.160;5.298;2024-02-04T09:15:59;12.90;78.30
43995;DHT22;51687;52.160;5.298;2024-02-04T09:18:26;12.90;78.40
43995;DHT22;51687;52.160;5.298;2024-02-04T09:20:53;12.90;78.60
43995;DHT22;51687;52.160;5.298;2024-02-04T09:23:20;12.90;78.70
43995;DHT22;51687;52.160;5.298;2024-02-04T09:25:47;12.90;78.90
43995;DHT22;51687;52.160;5.298;2024-02-04T09:28:14;12.90;79.00
43995;DHT22;51687;52.160;5.298;2024-02-04T09:30:41;12.90;78.90
43995;DHT22;51687;52.160;5.298;2024-02-04T09:33:08;12.80;79.10
43995;DHT22;51687;52.160;5.298;2024-02-04T09:35:37;12.90;79.20
43995;DHT22;51687;52.160;5.298;2024-02-04T09:38:04;12.90;79.30
43995;DHT22;51687;52.160;5.298;2024-02-04T09:40:36;12.80;79.30
43995;DHT22;51687;52.160;5.298;2024-02-04T09:43:03;12.90;79.30
43995;DHT22;51687;52.160;5.298;2024-02-04T09:45:31;12.90;79.30
43995;DHT22;51687;52.160;5.298;2024-02-04T09:47:58;12.90;79.80
43995;DHT22;51687;52.160;5.298;2024-02-04T09:50:27;12.90;79.20
43995;DHT22;51687;52.160;5.298;2024-02-04T09:52:58;12.90;79.20
43995;DHT22;51687;52.160;5.298;2024-02-04T09:55:27;12.90;79.30
43995;DHT22;51687;52.160;5.298;2024-02-04T09:57:55;12.90;79.10
43995;DHT22;51687;52.160;5.298;2024-02-04T10:00:23;12.90;79.00
43995;DHT22;51687;52.160;5.298;2024-02-04T10:02:53;12.90;78.90
43995;DHT22;51687;52.160;5.298;2024-02-04T10:05:22;12.90;79.00
43995;DHT22;51687;52.160;5.298;2024-02-04T10:07:49;12.90;78.90
43995;DHT22;51687;52.160;5.298;2024-02-04T10:10:16;12.90;78.70
43995;DHT22;51687;52.160;5.298;2024-02-04T10:12:43;12.90;78.60
43995;DHT22;51687;52.160;5.298;2024-02-04T10:15:11;12.90;78.50
43995;DHT22;51687;52.160;5.298;2024-02-04T10:17:45;12.90;78.30
43995;DHT22;51687;52.160;5.298;2024-02-04T10:20:12;12.90;78.80
43995;DHT22;51687;52.160;5.298;2024-02-04T10:22:43;12.90;78.10
43995;DHT22;51687;52.160;5.298;2024-02-04T10:25:11;12.90;78.10
43995;DHT22;51687;52.160;5.298;2024-02-04T10:27:43;13.00;78.00
43995;DHT22;51687;52.160;5.298;2024-02-04T10:30:14;13.00;77.90
43995;DHT22;51687;52.160;5.298;2024-02-04T10:32:44;13.00;77.90
43995;DHT22;51687;52.160;5.298;2024-02-04T10:35:12;13.00;77.90
43995;DHT22;51687;52.160;5.298;2024-02-04T10:37:39;13.10;77.50
43995;DHT22;51687;52.160;5.298;2024-02-04T10:40:06;13.10;77.40
43995;DHT22;51687;52.160;5.298;2024-02-04T10:42:34;13.10;77.00
43995;DHT22;51687;52.160;5.298;2024-02-04T10:45:02;13.20;77.10
43995;DHT22;51687;52.160;5.298;2024-02-04T10:47:32;13.20;76.80
43995;DHT22;51687;52.160;5.298;2024-02-04T10:50:02;13.20;76.50
43995;DHT22;51687;52.160;5.298;2024-02-04T10:52:36;13.20;76.10
43995;DHT22;51687;52.160;5.298;2024-02-04T10:55:08;13.30;76.10
43995;DHT22;51687;52.160;5.298;2024-02-04T10:57:36;13.30;76.00
43995;DHT22;51687;52.160;5.298;2024-02-04T11:00:04;13.30;76.10
43995;DHT22;51687;52.160;5.298;2024-02-04T11:02:35;13.30;76.20
43995;DHT22;51687;52.160;5.298;2024-02-04T11:05:04;13.30;76.40
43995;DHT22;51687;52.160;5.298;2024-02-04T11:07:34;13.30;76.70
43995;DHT22;51687;52.160;5.298;2024-02-04T11:10:02;13.30;76.40
43995;DHT22;51687;52.160;5.298;2024-02-04T11:12:30;13.30;76.80
43995;DHT22;51687;52.160;5.298;2024-02-04T11:15:07;13.30;77.40
43995;DHT22;51687;52.160;5.298;2024-02-04T11:23:37;13.30;78.40
43995;DHT22;51687;52.160;5.298;2024-02-04T11:26:06;13.40;78.70
43995;DHT22;51687;52.160;5.298;2024-02-04T11:28:36;13.40;78.60
43995;DHT22;51687;52.160;5.298;2024-02-04T11:31:04;13.40;78.70
43995;DHT22;51687;52.160;5.298;2024-02-04T11:33:31;13.40;79.00
43995;DHT22;51687;52.160;5.298;2024-02-04T11:36:11;13.40;79.00
43995;DHT22;51687;52.160;5.298;2024-02-04T11:38:39;13.30;79.10
43995;DHT22;51687;52.160;5.298;2024-02-04T11:41:07;13.30;79.30
43995;DHT22;51687;52.160;5.298;2024-02-04T11:43:38;13.30;79.60
43995;DHT22;51687;52.160;5.298;2024-02-04T11:46:06;13.30;79.90
43995;DHT22;51687;52.160;5.298;2024-02-04T11:48:34;13.30;79.90
43995;DHT22;51687;52.160;5.298;2024-02-04T11:51:02;13.30;79.70
43995;DHT22;51687;52.160;5.298;2024-02-04T11:53:32;13.30;79.70
43995;DHT22;51687;52.160;5.298;2024-02-04T11:56:03;13.40;79.40
43995;DHT22;51687;52.160;5.298;2024-02-04T11:58:31;13.40;79.50
43995;DHT22;51687;52.160;5.298;2024-02-04T12:00:58;13.40;79.40
43995;DHT22;51687;52.160;5.298;2024-02-04T12:03:33;13.40;79.40
43995;DHT22;51687;52.160;5.298;2024-02-04T12:06:01;13.50;79.30
43995;DHT22;51687;52.160;5.298;2024-02-04T12:08:31;13.50;79.20
43995;DHT22;51687;52.160;5.298;2024-02-04T12:11:00;13.50;79.20
43995;DHT22;51687;52.160;5.298;2024-02-04T12:13:28;13.50;79.20
43995;DHT22;51687;52.160;5.298;2024-02-04T12:15:55;13.60;79.10
43995;DHT22;51687;52.160;5.298;2024-02-04T12:18:22;13.60;78.90
43995;DHT22;51687;52.160;5.298;2024-02-04T12:20:49;13.60;78.60
43995;DHT22;51687;52.160;5.298;2024-02-04T12:23:17;13.60;78.60
43995;DHT22;51687;52.160;5.298;2024-02-04T12:25:50;13.60;78.60
43995;DHT22;51687;52.160;5.298;2024-02-04T12:28:17;13.60;78.40
43995;DHT22;51687;52.160;5.298;2024-02-04T12:30:53;13.50;78.10
43995;DHT22;51687;52.160;5.298;2024-02-04T12:33:22;13.60;78.20
43995;DHT22;51687;52.160;5.298;2024-02-04T12:35:50;13.50;78.20
43995;DHT22;51687;52.160;5.298;2024-02-04T12:38:18;13.50;78.30
43995;DHT22;51687;52.160;5.298;2024-02-04T12:40:47;13.50;78.10
43995;DHT22;51687;52.160;5.298;2024-02-04T12:43:13;13.50;78.00
43995;DHT22;51687;52.160;5.298;2024-02-04T12:45:41;13.60;78.00
43995;DHT22;51687;52.160;5.298;2024-02-04T12:48:08;13.60;78.00
43995;DHT22;51687;52.160;5.298;2024-02-04T12:50:38;13.60;77.80
43995;DHT22;51687;52.160;5.298;2024-02-04T12:53:07;13.60;77.90
43995;DHT22;51687;52.160;5.298;2024-02-04T12:55:34;13.60;77.90
43995;DHT22;51687;52.160;5.298;2024-02-04T12:58:11;13.50;78.00
43995;DHT22;51687;52.160;5.298;2024-02-04T13:00:47;13.50;77.70
43995;DHT22;51687;52.160;5.298;2024-02-04T13:03:15;13.50;77.90
43995;DHT22;51687;52.160;5.298;2024-02-04T13:05:42;13.40;78.10
43995;DHT22;51687;52.160;5.298;2024-02-04T13:08:09;13.40;78.20
43995;DHT22;51687;52.160;5.298;2024-02-04T13:10:36;13.40;77.80
43995;DHT22;51687;52.160;5.298;2024-02-04T13:13:05;13.40;77.90
43995;DHT22;51687;52.160;5.298;2024-02-04T13:15:40;13.30;78.00
43995;DHT22;51687;52.160;5.298;2024-02-04T13:18:08;13.30;78.10
43995;DHT22;51687;52.160;5.298;2024-02-04T13:20:38;13.30;78.00
43995;DHT22;51687;52.160;5.298;2024-02-04T13:23:05;13.30;78.10
43995;DHT22;51687;52.160;5.298;2024-02-04T13:25:33;13.30;78.10
43995;DHT22;51687;52.160;5.298;2024-02-04T13:28:00;13.30;78.30
43995;DHT22;51687;52.160;5.298;2024-02-04T13:30:28;13.30;78.30
43995;DHT22;51687;52.160;5.298;2024-02-04T13:32:55;13.30;78.10
43995;DHT22;51687;52.160;5.298;2024-02-04T13:35:23;13.30;78.10
43995;DHT22;51687;52.160;5.298;2024-02-04T13:37:51;13.30;78.20
43995;DHT22;51687;52.160;5.298;2024-02-04T15:38:52;13.30;78.10
43995;DHT22;51687;52.160;5.298;2024-02-04T15:41:19;13.40;76.40
43995;DHT22;51687;52.160;5.298;2024-02-04T15:43:45;13.40;76.10
43995;DHT22;51687;52.160;5.298;2024-02-04T15:46:12;13.40;76.50
43995;DHT22;51687;52.160;5.298;2024-02-04T15:48:40;13.30;76.50
43995;DHT22;51687;52.160;5.298;2024-02-04T15:51:10;13.30;76.60
43995;DHT22;51687;52.160;5.298;2024-02-04T15:53:37;13.30;77.20
43995;DHT22;51687;52.160;5.298;2024-02-04T15:56:05;13.40;76.60
43995;DHT22;51687;52.160;5.298;2024-02-04T15:58:36;13.40;76.70
43995;DHT22;51687;52.160;5.298;2024-02-04T16:01:10;13.40;76.50
43995;DHT22;51687;52.160;5.298;2024-02-04T16:03:39;13.40;76.50
43995;DHT22;51687;52.160;5.298;2024-02-04T16:06:07;13.40;76.50
43995;DHT22;51687;52.160;5.298;2024-02-04T16:08:35;13.30;76.30
43995;DHT22;51687;52.160;5.298;2024-02-04T16:11:05;13.30;76.60
43995;DHT22;51687;52.160;5.298;2024-02-04T16:13:33;13.30;76.70
43995;DHT22;51687;52.160;5.298;2024-02-04T16:16:01;13.30;76.80
43995;DHT22;51687;52.160;5.298;2024-02-04T16:18:29;13.30;76.60
43995;DHT22;51687;52.160;5.298;2024-02-04T16:20:57;13.30;76.50
43995;DHT22;51687;52.160;5.298;2024-02-04T16:23:24;13.30;76.60
43995;DHT22;51687;52.160;5.298;2024-02-04T16:25:51;13.20;76.70
43995;DHT22;51687;52.160;5.298;2024-02-04T16:28:18;13.20;76.90
43995;DHT22;51687;52.160;5.298;2024-02-04T16:30:46;13.30;76.70
43995;DHT22;51687;52.160;5.298;2024-02-04T16:33:15;13.30;76.90
43995;DHT22;51687;52.160;5.298;2024-02-04T16:35:43;13.30;76.60
43995;DHT22;51687;52.160;5.298;2024-02-04T16:38:09;13.30;76.50
43995;DHT22;51687;52.160;5.298;2024-02-04T16:40:37;13.30;76.60
43995;DHT22;51687;52.160;5.298;2024-02-04T16:43:07;13.30;76.60
43995;DHT22;51687;52.160;5.298;2024-02-04T16:45:34;13.30;76.60
43995;DHT22;51687;52.160;5.298;2024-02-04T16:48:00;13.40;76.60
43995;DHT22;51687;52.160;5.298;2024-02-04T16:50:29;13.40;76.40
43995;DHT22;51687;52.160;5.298;2024-02-04T16:52:57;13.40;76.40
43995;DHT22;51687;52.160;5.298;2024-02-04T16:55:24;13.40;76.30
43995;DHT22;51687;52.160;5.298;2024-02-04T16:57:50;13.40;76.30
43995;DHT22;51687;52.160;5.298;2024-02-04T17:00:17;13.40;76.40
43995;DHT22;51687;52.160;5.298;2024-02-04T17:02:46;13.40;76.40
43995;DHT22;51687;52.160;5.298;2024-02-04T17:05:14;13.40;76.50
43995;DHT22;51687;52.160;5.298;2024-02-04T17:07:41;13.40;76.30
43995;DHT22;51687;52.160;5.298;2024-02-04T17:10:09;13.40;76.30
43995;DHT22;51687;52.160;5.298;2024-02-04T17:12:37;13.40;76.30
43995;DHT22;51687;52.160;5.298;2024-02-04T17:15:07;13.40;76.20
43995;DHT22;51687;52.160;5.298;2024-02-04T17:17:36;13.40;76.20
43995;DHT22;51687;52.160;5.298;2024-02-04T17:20:14;13.40;76.40
43995;DHT22;51687;52.160;5.298;2024-02-04T17:22:46;13.40;76.60
43995;DHT22;51687;52.160;5.298;2024-02-04T17:25:14;13.40;76.40
43995;DHT22;51687;52.160;5.298;2024-02-04T17:27:45;13.40;76.50
43995;DHT22;51687;52.160;5.298;2024-02-04T17:30:12;13.40;76.50
43995;DHT22;51687;52.160;5.298;2024-02-04T17:32:44;13.40;76.50
43995;DHT22;51687;52.160;5.298;2024-02-04T17:35:12;13.40;76.40
43995;DHT22;51687;52.160;5.298;2024-02-04T17:37:40;13.40;76.50
43995;DHT22;51687;52.160;5.298;2024-02-04T17:40:08;13.40;76.60
43995;DHT22;51687;52.160;5.298;2024-02-04T17:42:36;13.30;76.80